Aérodrome :
LOGIN :

S'inscrire | Disclaimer

   EN    FR    IT 

 










Légende :    VFR   VFR Marginal   IFR   IFR Intensif   IFR Très Intensif
Visi : 
Plafond : 
>= 8 km
>= 3000ft
5 à 8 km
1000 à 3000 ft
1500m à 5 km
500 à 1000 ft
800 à 1500m
200 à 500 ft
< 800m
< 200 ft
Symboles :   Orages  Brouillard  Fortes neiges  Fortes précipitations  Vent > 20 kt
SIGMETs :   Divers  Orages  Givrage  Turbulence  Onde Orograph.  Cendres Volcan.







- Altitude de l'aérodrome : 645 ft
- Code IATA : DLE
- Voir les cartes d'approche


LFGJ - Dole Tavaux

DERNIER METAR :
  • 230230Z AUTO 22005KT 9999 SCT043 BKN052 OVC068 16/15 Q1018

METARs EXPIRÉS :
  • 230200Z AUTO 22006KT CAVOK 16/15 Q1018
  • 230130Z AUTO 22007KT 9999 FEW049 BKN070 BKN084 17/15 Q1018
  • 230100Z AUTO 23009KT 9999 OVC047 19/16 Q1018
  • 230030Z AUTO 21007KT 9999 BKN042 OVC054 18/17 Q1018
  • 230000Z AUTO 22006KT 180V260 9999 FEW037 OVC052 18/17 Q1017

TAF TAF LFGJ
Valide du 23 à 03h jusqu'au 23 à 12h UTC


230200Z 2303/2312 21005KT 9999 BKN050
PROB30
TEMPO 2303/2307 -SHRA
PROB30
TEMPO 2310/2312 FEW040TCU
Pas de NOTAMs connus pour ce terrain.



MET'MAP, la Météo Aéronautique d'un coup d'oeil ! - Copyright ORBIFLY Décembre 2007 - Disclaimer

ORBIFLY MET'MAP TEAM :

Programmation & Développement : Alexandra Zaïnal
Conception & Développement : Baudouin d'Aumeries
Co-Programmation & Développement : Marc-Olivier Méhu
Soutien technique & logistique : Manuel Goepfert

Contact : metmap@orbifly.com




SOURCES & CREDITS :

   NOAA